Time;durP1;ratioP1;P1;durP2;ratioP2;P2;SDS_P1;SDS_P2;PMS_P1;PMS_P2;Temp;Humidity;BMP_temperature;BMP_pressure;BME280_temperature;BME280_humidity;BME280_pressure;Samples;Min_cycle;Max_cycle;Signal;HPM_P1;HPM_P2
2022/02/14 00:00:18;;;;;;;71.92;31.87;;;;;;;-2.82;55.75;97435.14;1630924;87;25791;-89
2022/02/14 00:02:47;;;;;;;68.40;30.32;;;;;;;-2.82;55.98;97429.85;1630565;87;25892;-89
2022/02/14 00:05:14;;;;;;;73.12;30.85;;;;;;;-2.82;56.04;97430.69;1628320;87;27369;-89
2022/02/14 00:07:41;;;;;;;64.90;26.73;;;;;;;-2.82;56.15;97429.85;1622681;87;25988;-89
2022/02/14 00:10:09;;;;;;;64.65;28.50;;;;;;;-2.84;56.14;97429.14;1630805;87;26366;-88
2022/02/14 00:12:41;;;;;;;55.75;24.37;;;;;;;-2.78;56.32;97428.16;1630922;87;25830;-89
2022/02/14 00:15:06;;;;;;;54.80;23.60;;;;;;;-2.75;56.32;97421.75;1630291;87;25658;-90
2022/02/14 00:17:33;;;;;;;54.75;26.07;;;;;;;-2.71;56.21;97425.34;1630856;87;27385;-89
2022/02/14 00:20:00;;;;;;;56.20;23.38;;;;;;;-2.69;56.26;97419.45;1630829;87;25774;-88
2022/02/14 00:22:27;;;;;;;54.38;23.15;;;;;;;-2.64;56.19;97429.13;1630806;87;25280;-89
2022/02/14 00:24:54;;;;;;;50.43;22.20;;;;;;;-2.66;56.07;97419.20;1630886;87;25671;-89
2022/02/14 00:27:24;;;;;;;43.87;19.55;;;;;;;-2.66;56.04;97416.56;1630026;87;25753;-90
2022/02/14 00:29:50;;;;;;;46.37;19.67;;;;;;;-2.63;55.85;97417.59;1624342;87;27477;-88
2022/02/14 00:32:20;;;;;;;46.50;19.62;;;;;;;-2.59;55.92;97419.02;1630734;87;25300;-90
2022/02/14 00:34:47;;;;;;;39.18;18.07;;;;;;;-2.66;55.78;97409.95;1626902;87;25716;-88
2022/02/14 00:37:16;;;;;;;37.00;16.12;;;;;;;-2.68;55.77;97415.84;1627122;87;25752;-89
2022/02/14 00:39:44;;;;;;;38.73;17.37;;;;;;;-2.70;55.59;97411.66;1646749;86;25322;-88
2022/02/14 00:42:11;;;;;;;37.03;16.75;;;;;;;-2.72;55.58;97401.20;1652614;85;27612;-88
2022/02/14 00:44:38;;;;;;;35.98;15.93;;;;;;;-2.72;55.52;97397.24;1649410;86;25808;-87
2022/02/14 00:47:06;;;;;;;40.17;16.25;;;;;;;-2.69;55.57;97406.24;1657988;86;25816;-88
2022/02/14 00:49:33;;;;;;;41.98;16.45;;;;;;;-2.68;55.59;97397.83;1659194;86;26005;-88
2022/02/14 00:51:59;;;;;;;42.27;18.35;;;;;;;-2.66;55.51;97401.19;1657366;86;25787;-88
2022/02/14 00:54:26;;;;;;;45.45;18.82;;;;;;;-2.67;55.47;97393.74;1656480;85;27377;-88
2022/02/14 00:56:53;;;;;;;35.60;17.35;;;;;;;-2.75;55.33;97400.14;1657894;86;26074;-89
2022/02/14 00:59:21;;;;;;;41.63;16.75;;;;;;;-2.75;55.30;97394.85;1658063;85;25795;-88
2022/02/14 01:01:49;;;;;;;39.20;17.23;;;;;;;-2.78;55.26;97386.37;1656680;86;25863;-88
2022/02/14 01:04:16;;;;;;;43.40;17.23;;;;;;;-2.80;55.41;97383.02;1656441;86;25329;-88
2022/02/14 01:06:43;;;;;;;39.63;16.45;;;;;;;-2.91;55.33;97386.08;1658525;86;27358;-88
2022/02/14 01:09:10;;;;;;;45.92;18.25;;;;;;;-2.91;55.45;97385.23;1657266;86;26006;-87
2022/02/14 01:11:38;;;;;;;43.98;19.00;;;;;;;-2.98;55.48;97386.70;1656774;85;25687;-88
2022/02/14 01:14:06;;;;;;;44.50;17.67;;;;;;;-3.06;55.56;97375.95;1656674;86;26738;-88
2022/02/14 01:16:33;;;;;;;44.25;17.17;;;;;;;-3.11;55.67;97367.56;1658690;86;25791;-87
2022/02/14 01:19:01;;;;;;;50.05;18.90;;;;;;;-3.12;55.80;97372.00;1654602;86;27369;-88
2022/02/14 01:21:27;;;;;;;40.48;16.93;;;;;;;-3.13;55.80;97365.52;1657388;86;25752;-88
2022/02/14 01:23:54;;;;;;;46.88;18.10;;;;;;;-3.18;55.71;97355.84;1657922;86;25798;-87
2022/02/14 01:26:21;;;;;;;35.23;15.85;;;;;;;-3.17;55.74;97354.88;1658254;86;25808;-87
2022/02/14 01:28:48;;;;;;;30.48;14.80;;;;;;;-3.15;55.82;97345.03;1658083;86;25272;-87
2022/02/14 01:31:14;;;;;;;34.63;15.32;;;;;;;-3.16;55.75;97338.08;1656658;86;27385;-88
2022/02/14 01:33:41;;;;;;;32.25;15.30;;;;;;;-3.20;55.79;97349.84;1630480;86;25812;-87
2022/02/14 01:36:08;;;;;;;36.20;16.40;;;;;;;-3.19;55.83;97340.48;1657371;86;25781;-88
2022/02/14 01:38:35;;;;;;;35.75;15.80;;;;;;;-3.19;55.93;97341.80;1658108;86;25894;-88
2022/02/14 01:41:01;;;;;;;40.30;17.25;;;;;;;-3.22;55.88;97339.89;1661064;86;25803;-88
2022/02/14 01:43:28;;;;;;;31.02;14.75;;;;;;;-3.24;55.97;97336.54;1660493;86;27428;-87
2022/02/14 01:45:55;;;;;;;34.60;15.18;;;;;;;-3.29;56.04;97335.14;1659444;86;25809;-87
2022/02/14 01:48:22;;;;;;;36.48;16.82;;;;;;;-3.31;56.17;97331.78;1660563;85;25815;-87
2022/02/14 01:50:48;;;;;;;39.10;14.90;;;;;;;-3.35;56.29;97321.11;1660996;86;26486;-87
2022/02/14 01:53:16;;;;;;;39.73;15.23;;;;;;;-3.38;56.50;97316.08;1660287;85;25882;-87
2022/02/14 01:55:43;;;;;;;32.98;14.23;;;;;;;-3.45;56.47;97318.89;1660237;86;27386;-87
2022/02/14 01:58:10;;;;;;;34.33;12.70;;;;;;;-3.54;56.67;97303.82;1659204;85;26113;-87
2022/02/14 02:00:37;;;;;;;30.70;14.07;;;;;;;-3.61;56.89;97311.87;1661122;86;25290;-87
2022/02/14 02:03:04;;;;;;;30.25;13.68;;;;;;;-3.66;57.12;97315.38;1659499;86;26512;-87
2022/02/14 02:05:30;;;;;;;26.12;12.53;;;;;;;-3.76;57.11;97299.95;1660223;86;25703;-87
2022/02/14 02:07:57;;;;;;;29.95;13.65;;;;;;;-3.75;56.94;97301.63;1659453;86;27380;-87
2022/02/14 02:10:26;;;;;;;29.12;14.13;;;;;;;-3.75;57.09;97300.31;1659520;86;25780;-87
2022/02/14 02:12:56;;;;;;;32.33;14.95;;;;;;;-3.75;57.14;97297.20;1659465;86;25783;-87
2022/02/14 02:15:24;;;;;;;30.68;14.98;;;;;;;-3.71;57.26;97303.03;1659619;85;26110;-88
2022/02/14 02:17:51;;;;;;;35.98;17.15;;;;;;;-3.72;57.28;97296.09;1659512;86;25794;-87
2022/02/14 02:20:20;;;;;;;37.10;17.70;;;;;;;-3.69;57.23;97299.80;1657180;86;28585;-87
2022/02/14 02:22:50;;;;;;;40.40;20.75;;;;;;;-3.70;57.22;97291.52;1661832;86;25734;-87
2022/02/14 02:25:18;;;;;;;38.48;18.98;;;;;;;-3.72;57.31;97290.81;1664930;85;25778;-88
2022/02/14 02:27:46;;;;;;;36.48;17.55;;;;;;;-3.75;57.46;97294.56;1664927;85;25738;-87
2022/02/14 02:30:18;;;;;;;36.65;17.80;;;;;;;-3.78;57.57;97296.60;1665044;85;25716;-87
2022/02/14 02:32:46;;;;;;;32.53;16.05;;;;;;;-3.79;57.56;97282.58;1640252;85;27372;-87
2022/02/14 02:35:13;;;;;;;32.95;15.05;;;;;;;-3.81;57.55;97281.86;1662907;86;26045;-87
2022/02/14 02:37:40;;;;;;;28.30;14.60;;;;;;;-3.84;57.55;97285.22;1664030;85;26489;-87
2022/02/14 02:40:09;;;;;;;29.07;14.83;;;;;;;-3.84;57.59;97278.63;1644843;86;26546;-87
2022/02/14 02:42:36;;;;;;;28.00;14.40;;;;;;;-3.85;57.62;97272.52;1662134;86;25805;-87
2022/02/14 02:45:04;;;;;;;32.55;14.83;;;;;;;-3.82;57.76;97267.47;1661859;86;27422;-87
2022/02/14 02:47:31;;;;;;;26.57;13.50;;;;;;;-3.83;57.77;97270.59;1661901;86;25863;-87
2022/02/14 02:49:57;;;;;;;27.62;13.72;;;;;;;-3.86;57.76;97268.67;1662021;86;25764;-87
2022/02/14 02:52:24;;;;;;;22.85;12.28;;;;;;;-3.84;57.73;97269.39;1662093;86;25770;-87
2022/02/14 02:54:52;;;;;;;29.65;12.40;;;;;;;-3.83;57.79;97265.80;1661793;86;25708;-87
2022/02/14 02:57:19;;;;;;;23.18;11.30;;;;;;;-3.84;57.79;97257.53;1662004;85;26835;-87
2022/02/14 02:59:46;;;;;;;24.63;11.53;;;;;;;-3.87;57.86;97265.72;1662068;86;25757;-87
2022/02/14 03:02:13;;;;;;;25.27;12.15;;;;;;;-3.90;57.98;97257.56;1662143;86;25795;-87
2022/02/14 03:04:40;;;;;;;26.75;13.32;;;;;;;-3.89;58.17;97258.41;1662197;86;26277;-87
2022/02/14 03:07:07;;;;;;;24.70;12.40;;;;;;;-3.89;58.33;97261.05;1662123;86;25763;-88
2022/02/14 03:09:34;;;;;;;26.00;12.47;;;;;;;-3.90;58.40;97254.92;1662100;86;27419;-87
2022/02/14 03:12:01;;;;;;;25.77;12.93;;;;;;;-3.87;58.50;97259.12;1662011;86;25831;-88
2022/02/14 03:14:28;;;;;;;30.17;13.70;;;;;;;-3.87;58.65;97259.12;1662152;86;25763;-86
2022/02/14 03:16:55;;;;;;;26.93;13.45;;;;;;;-3.90;58.80;97254.09;1662019;86;26330;-87
2022/02/14 03:19:23;;;;;;;30.70;13.35;;;;;;;-3.90;59.12;97250.13;1662132;86;25834;-88
2022/02/14 03:21:50;;;;;;;22.50;12.63;;;;;;;-3.88;59.29;97251.69;1662013;85;27438;-88
2022/02/14 03:24:17;;;;;;;28.62;13.65;;;;;;;-3.89;59.48;97246.53;1661819;85;25770;-87
2022/02/14 03:26:44;;;;;;;27.58;12.78;;;;;;;-3.87;59.63;97248.57;1681989;85;25328;-87
2022/02/14 03:29:13;;;;;;;21.85;11.88;;;;;;;-3.83;59.66;97249.97;1662108;86;25816;-87
2022/02/14 03:31:39;;;;;;;25.30;12.65;;;;;;;-3.80;59.65;97252.36;1662127;86;26357;-88
2022/02/14 03:34:07;;;;;;;21.93;11.68;;;;;;;-3.82;59.61;97252.97;1662093;85;27407;-88
2022/02/14 03:36:34;;;;;;;20.57;10.23;;;;;;;-3.81;59.59;97241.45;1662070;86;25700;-86
2022/02/14 03:39:01;;;;;;;18.70;10.35;;;;;;;-3.76;59.84;97252.48;1661514;85;25757;-87
2022/02/14 03:41:28;;;;;;;22.65;11.15;;;;;;;-3.72;59.88;97247.28;1694003;83;25846;-87
2022/02/14 03:43:55;;;;;;;21.35;10.55;;;;;;;-3.70;59.67;97248.00;1680358;83;25465;-88
2022/02/14 03:46:22;;;;;;;21.90;11.03;;;;;;;-3.66;59.60;97244.99;1629729;87;27415;-87
2022/02/14 03:48:49;;;;;;;25.90;10.93;;;;;;;-3.65;59.59;97249.30;1655568;86;25745;-88
2022/02/14 03:51:16;;;;;;;24.57;11.28;;;;;;;-3.64;59.53;97250.14;1694303;84;25760;-87
2022/02/14 03:53:42;;;;;;;19.80;11.18;;;;;;;-3.63;59.52;97238.62;1694238;83;26592;-87
2022/02/14 03:56:09;;;;;;;21.85;10.90;;;;;;;-3.67;59.61;97247.75;1689576;84;25744;-87
2022/02/14 03:58:37;;;;;;;19.10;10.55;;;;;;;-3.72;59.61;97248.13;1656994;86;27477;-88
2022/02/14 04:01:04;;;;;;;22.05;11.75;;;;;;;-3.74;59.63;97244.77;1694232;83;25767;-87
2022/02/14 04:03:31;;;;;;;23.25;12.85;;;;;;;-3.73;59.74;97246.45;1688598;84;25789;-87
2022/02/14 04:05:57;;;;;;;22.22;12.18;;;;;;;-3.71;59.71;97246.32;1694151;84;25768;-88
2022/02/14 04:08:24;;;;;;;27.52;13.03;;;;;;;-3.70;59.80;97240.09;1655652;86;26468;-88
2022/02/14 04:10:53;;;;;;;23.80;12.30;;;;;;;-3.67;59.77;97239.36;1694163;84;27308;-88
2022/02/14 04:13:21;;;;;;;22.52;12.25;;;;;;;-3.64;59.71;97239.59;1667009;84;25878;-88
2022/02/14 04:15:49;;;;;;;27.27;12.25;;;;;;;-3.65;59.70;97241.39;1639328;86;25762;-87
2022/02/14 04:18:16;;;;;;;27.20;11.95;;;;;;;-3.68;59.79;97240.80;1660984;86;25855;-88
2022/02/14 04:20:43;;;;;;;24.23;11.48;;;;;;;-3.69;59.80;97236.48;1660890;86;25801;-87
2022/02/14 04:23:10;;;;;;;19.98;10.80;;;;;;;-3.66;59.71;97237.56;1660661;86;27426;-87
2022/02/14 04:25:36;;;;;;;21.50;11.00;;;;;;;-3.66;59.63;97233.13;1660891;86;25263;-88
2022/02/14 04:28:03;;;;;;;18.40;9.80;;;;;;;-3.65;59.64;97231.32;1660951;86;25802;-87
2022/02/14 04:30:31;;;;;;;20.48;10.23;;;;;;;-3.65;59.62;97224.72;1660929;86;26530;-87
2022/02/14 04:32:59;;;;;;;22.15;10.28;;;;;;;-3.68;59.61;97232.41;1660867;86;25829;-87
2022/02/14 04:35:30;;;;;;;19.82;10.45;;;;;;;-3.68;59.56;97226.30;1668193;84;27502;-87
2022/02/14 04:38:01;;;;;;;20.12;10.70;;;;;;;-3.69;59.58;97224.62;1694115;84;25756;-89
2022/02/14 04:40:32;;;;;;;21.05;10.70;;;;;;;-3.70;59.61;97230.85;1689577;84;25378;-88
2022/02/14 04:43:00;;;;;;;24.30;12.40;;;;;;;-3.74;59.60;97226.30;1656658;86;26548;-88
2022/02/14 04:45:28;;;;;;;32.98;13.83;;;;;;;-3.74;59.59;97224.15;1656098;86;25834;-86
2022/02/14 04:47:56;;;;;;;29.15;13.90;;;;;;;-3.76;59.71;97230.90;1646768;86;27426;-86
2022/02/14 04:50:24;;;;;;;26.57;14.33;;;;;;;-3.76;59.64;97226.10;1664728;86;25838;-85
2022/02/14 04:52:51;;;;;;;28.98;15.55;;;;;;;-3.80;59.69;97225.98;1664912;86;25546;-86
2022/02/14 04:55:18;;;;;;;34.23;15.83;;;;;;;-3.84;59.74;97225.40;1664641;86;26361;-86
2022/02/14 04:57:45;;;;;;;32.70;15.85;;;;;;;-3.86;59.80;97230.44;1664621;86;25807;-86
2022/02/14 05:00:14;;;;;;;35.55;17.12;;;;;;;-3.89;59.92;97226.76;1664916;85;27371;-88
2022/02/14 05:02:42;;;;;;;36.80;17.85;;;;;;;-3.93;60.00;97228.80;1664762;86;26422;-86
2022/02/14 05:05:09;;;;;;;32.40;17.48;;;;;;;-3.93;59.97;97216.94;1664853;85;25940;-86
2022/02/14 05:07:36;;;;;;;38.60;17.45;;;;;;;-3.95;60.03;97224.61;1664902;86;25740;-86
2022/02/14 05:10:04;;;;;;;35.90;19.00;;;;;;;-3.97;59.99;97223.41;1664871;86;25756;-86
2022/02/14 05:12:31;;;;;;;34.80;17.70;;;;;;;-4.00;60.03;97227.16;1664967;86;27452;-86
2022/02/14 05:14:57;;;;;;;39.78;18.77;;;;;;;-4.00;60.08;97232.44;1664747;85;25821;-86
2022/02/14 05:17:24;;;;;;;41.42;20.17;;;;;;;-3.97;60.13;97228.69;1664966;86;25769;-88
2022/02/14 05:19:50;;;;;;;42.33;20.32;;;;;;;-3.96;60.16;97230.36;1664889;86;26563;-86
2022/02/14 05:22:17;;;;;;;45.23;19.48;;;;;;;-3.94;60.21;97224.97;1664710;86;25732;-86
2022/02/14 05:24:44;;;;;;;41.18;19.55;;;;;;;-3.96;60.15;97227.73;1637800;86;27320;-86
2022/02/14 05:27:10;;;;;;;47.30;20.62;;;;;;;-3.94;60.22;97228.92;1637696;87;25799;-86
2022/02/14 05:29:37;;;;;;;42.17;18.27;;;;;;;-3.93;60.29;97224.01;1659824;86;25855;-86
2022/02/14 05:32:04;;;;;;;43.75;18.95;;;;;;;-3.95;60.28;97229.41;1664814;85;25832;-86
2022/02/14 05:34:31;;;;;;;39.95;19.07;;;;;;;-3.98;60.34;97228.84;1664985;85;25729;-85
2022/02/14 05:36:57;;;;;;;46.58;19.82;;;;;;;-3.97;60.37;97227.37;1664924;85;28268;-86
2022/02/14 05:39:24;;;;;;;40.35;20.48;;;;;;;-3.97;60.44;97229.17;1664862;86;25779;-86
2022/02/14 05:41:51;;;;;;;47.58;21.30;;;;;;;-3.96;60.45;97225.57;1661848;85;25843;-86
2022/02/14 05:44:17;;;;;;;41.95;21.17;;;;;;;-3.98;60.53;97229.65;1661972;85;25751;-86
2022/02/14 05:46:44;;;;;;;41.10;20.23;;;;;;;-4.03;60.65;97231.36;1662024;86;25818;-85
2022/02/14 05:49:11;;;;;;;62.50;27.05;;;;;;;-4.03;60.75;97236.63;1661957;85;27424;-85
2022/02/14 05:51:38;;;;;;;59.48;27.58;;;;;;;-4.04;60.75;97233.64;1661915;86;25827;-86
2022/02/14 05:54:06;;;;;;;57.73;25.15;;;;;;;-4.09;60.90;97229.21;1661915;86;25748;-86
2022/02/14 05:56:33;;;;;;;50.03;23.32;;;;;;;-4.12;61.08;97233.92;1662034;84;25828;-86
2022/02/14 05:59:01;;;;;;;52.20;23.57;;;;;;;-4.15;61.10;97237.63;1661951;85;26295;-86
2022/02/14 06:01:28;;;;;;;52.17;23.75;;;;;;;-4.10;61.07;97234.13;1661911;86;28775;-86
2022/02/14 06:03:55;;;;;;;86.67;39.03;;;;;;;-4.07;61.12;97232.56;1661042;86;26272;-86
2022/02/14 06:06:22;;;;;;;60.17;26.23;;;;;;;-4.05;61.17;97243.83;1656913;86;25910;-86
2022/02/14 06:08:49;;;;;;;50.23;22.95;;;;;;;-4.09;61.35;97240.23;1662018;85;26485;-87
2022/02/14 06:11:16;;;;;;;42.27;22.32;;;;;;;-4.14;61.43;97245.90;1647139;86;25717;-86
2022/02/14 06:13:42;;;;;;;46.08;24.27;;;;;;;-4.15;61.60;97238.11;1662055;86;27396;-87
2022/02/14 06:16:09;;;;;;;51.48;24.23;;;;;;;-4.15;61.76;97237.63;1661964;86;25876;-86
2022/02/14 06:18:36;;;;;;;50.15;23.65;;;;;;;-4.16;61.74;97234.64;1662126;85;25829;-86
2022/02/14 06:21:02;;;;;;;56.45;26.07;;;;;;;-4.16;61.72;97233.32;1661960;86;25721;-87
2022/02/14 06:23:29;;;;;;;62.25;28.50;;;;;;;-4.10;61.77;97236.76;1661985;86;25831;-86
2022/02/14 06:25:56;;;;;;;65.80;29.40;;;;;;;-4.03;61.82;97239.27;1661866;85;27357;-87
2022/02/14 06:28:22;;;;;;;67.92;29.63;;;;;;;-4.00;61.77;97232.44;1662021;86;26376;-86
2022/02/14 06:30:49;;;;;;;73.35;30.60;;;;;;;-4.00;61.71;97236.39;1661961;86;25408;-87
2022/02/14 06:33:16;;;;;;;78.20;33.63;;;;;;;-3.97;61.82;97223.89;1662154;86;25765;-87
2022/02/14 06:35:44;;;;;;;78.42;32.23;;;;;;;-3.94;61.83;97226.28;1662116;86;25696;-86
2022/02/14 06:38:11;;;;;;;75.47;31.95;;;;;;;-3.95;61.96;97226.77;1661985;86;27377;-87
2022/02/14 06:40:38;;;;;;;94.32;39.48;;;;;;;-3.98;61.86;97223.56;1661950;85;25809;-88
2022/02/14 06:43:05;;;;;;;105.60;44.18;;;;;;;-3.95;61.99;97225.92;1662201;86;25787;-86
2022/02/14 06:45:31;;;;;;;97.27;42.78;;;;;;;-3.90;62.18;97229.04;1662079;86;25743;-86
2022/02/14 06:47:58;;;;;;;94.52;41.25;;;;;;;-3.88;62.24;97225.31;1662208;86;25740;-88
2022/02/14 06:50:24;;;;;;;89.67;40.63;;;;;;;-3.88;62.39;97226.64;1662128;86;28038;-86
2022/02/14 06:52:51;;;;;;;91.78;41.35;;;;;;;-3.90;62.42;97223.77;1662036;86;26531;-88
2022/02/14 06:55:17;;;;;;;92.05;41.02;;;;;;;-3.89;62.53;97216.21;1661666;86;25895;-85
2022/02/14 06:57:44;;;;;;;84.05;39.78;;;;;;;-3.87;62.63;97216.92;1661928;86;25742;-86
2022/02/14 07:00:14;;;;;;;75.42;36.10;;;;;;;-3.83;62.66;97215.69;1662055;86;25812;-86
2022/02/14 07:02:42;;;;;;;75.15;36.65;;;;;;;-3.77;62.73;97213.88;1652474;86;27553;-87
2022/02/14 07:05:14;;;;;;;80.75;39.70;;;;;;;-3.71;62.75;97206.75;1638249;86;25795;-86
2022/02/14 07:07:39;;;;;;;87.67;42.25;;;;;;;-3.64;62.84;97217.17;1659045;86;25884;-88
2022/02/14 07:10:07;;;;;;;89.62;41.90;;;;;;;-3.60;63.04;97218.56;1662282;86;25740;-86
2022/02/14 07:12:33;;;;;;;96.08;42.88;;;;;;;-3.55;63.07;97215.08;1656878;86;25865;-85
2022/02/14 07:15:00;;;;;;;98.78;46.68;;;;;;;-3.51;63.13;97215.17;1638948;86;28055;-87
2022/02/14 07:17:27;;;;;;;93.80;43.63;;;;;;;-3.44;63.12;97207.09;1655254;86;25672;-86
2022/02/14 07:19:53;;;;;;;100.72;45.15;;;;;;;-3.36;63.26;97208.58;1661319;85;25854;-86
2022/02/14 07:22:20;;;;;;;109.03;46.00;;;;;;;-3.28;63.21;97203.99;1661310;85;26090;-87
2022/02/14 07:24:48;;;;;;;116.08;48.52;;;;;;;-3.20;63.17;97205.48;1662002;85;25779;-86
2022/02/14 07:27:15;;;;;;;105.05;45.55;;;;;;;-3.09;63.18;97199.28;1661822;86;27396;-88
2022/02/14 07:29:41;;;;;;;118.17;45.65;;;;;;;-2.99;63.22;97206.75;1649436;86;26176;-86
2022/02/14 07:32:09;;;;;;;98.15;44.20;;;;;;;-2.86;63.29;97194.64;1643515;86;25799;-86
2022/02/14 07:34:35;;;;;;;130.27;57.85;;;;;;;-2.74;63.38;97203.66;1642139;85;25824;-86
2022/02/14 07:37:03;;;;;;;154.38;66.92;;;;;;;-2.61;63.45;97202.10;1634113;87;25885;-87
2022/02/14 07:39:30;;;;;;;156.47;67.30;;;;;;;-2.50;63.45;97202.48;1655250;86;27368;-86
2022/02/14 07:41:59;;;;;;;148.25;64.87;;;;;;;-2.38;63.47;97196.11;1656727;85;25843;-86
2022/02/14 07:44:27;;;;;;;152.93;67.10;;;;;;;-2.27;63.51;97198.63;1658246;86;26210;-86
2022/02/14 07:46:54;;;;;;;142.32;63.55;;;;;;;-2.17;63.49;97198.15;1662200;86;25852;-88
2022/02/14 07:49:23;;;;;;;126.10;55.75;;;;;;;-2.04;63.56;97202.69;1661918;86;25776;-89
2022/02/14 07:51:49;;;;;;;100.58;46.77;;;;;;;-1.89;63.58;97194.70;1662186;86;27428;-88
2022/02/14 07:54:16;;;;;;;95.65;44.13;;;;;;;-1.74;63.58;97187.66;1662169;86;25842;-86
2022/02/14 07:56:43;;;;;;;99.70;43.90;;;;;;;-1.60;63.63;97185.42;1662113;86;25319;-87
2022/02/14 07:59:09;;;;;;;79.55;39.13;;;;;;;-1.41;63.83;97180.58;1661954;86;26446;-87
2022/02/14 08:01:36;;;;;;;69.15;32.25;;;;;;;-1.18;63.79;97177.10;1662206;86;25755;-87
2022/02/14 08:04:05;;;;;;;75.97;34.60;;;;;;;-0.94;63.85;97180.58;1647207;86;27521;-90
2022/02/14 08:06:32;;;;;;;84.62;37.23;;;;;;;-0.62;63.81;97175.70;1646960;86;25297;-90
2022/02/14 08:08:59;;;;;;;58.42;28.75;;;;;;;-0.25;63.62;97168.16;1662275;85;25833;-88
2022/02/14 08:11:26;;;;;;;56.48;25.37;;;;;;;0.10;63.34;97170.83;1661886;86;25697;-86
2022/02/14 08:13:54;;;;;;;41.02;21.57;;;;;;;0.45;63.07;97166.48;1661475;84;25680;-86
2022/02/14 08:16:20;;;;;;;41.18;20.75;;;;;;;0.77;62.73;97161.38;1660921;84;28207;-86
2022/02/14 08:18:49;;;;;;;32.73;17.87;;;;;;;1.07;62.39;97163.57;1645227;86;25707;-87
2022/02/14 08:21:16;;;;;;;31.17;16.60;;;;;;;1.37;61.94;97158.71;1630112;88;25809;-87
2022/02/14 08:23:42;;;;;;;31.23;17.92;;;;;;;1.66;61.67;97164.48;1630180;88;25831;-86
2022/02/14 08:26:09;;;;;;;32.40;18.50;;;;;;;1.95;61.25;97160.54;1630244;88;25762;-86
2022/02/14 08:28:38;;;;;;;26.45;16.48;;;;;;;2.21;60.93;97161.25;1630292;88;27381;-86
2022/02/14 08:31:06;;;;;;;28.95;15.93;;;;;;;2.45;60.51;97150.61;1630228;87;25815;-85
2022/02/14 08:33:33;;;;;;;30.17;17.50;;;;;;;2.67;60.06;97153.58;1632181;86;25787;-88
2022/02/14 08:36:00;;;;;;;31.57;16.32;;;;;;;2.87;59.71;97144.25;1662603;86;25704;-85
2022/02/14 08:38:27;;;;;;;31.02;17.87;;;;;;;3.08;59.33;97145.02;1662881;85;25716;-89
2022/02/14 08:40:53;;;;;;;31.60;17.62;;;;;;;3.32;59.03;97140.11;1660649;86;27318;-85
2022/02/14 08:43:20;;;;;;;31.30;17.50;;;;;;;3.55;58.54;97137.01;1652611;86;26113;-86
2022/02/14 08:45:47;;;;;;;26.90;16.23;;;;;;;3.79;58.24;97135.55;1662275;86;25390;-86
2022/02/14 08:48:14;;;;;;;25.85;16.25;;;;;;;3.99;57.76;97134.08;1661774;86;25559;-86
2022/02/14 08:50:41;;;;;;;29.98;16.02;;;;;;;4.22;57.59;97140.80;1662092;86;25740;-86
2022/02/14 08:53:09;;;;;;;25.50;15.48;;;;;;;4.47;57.16;97132.06;1662368;85;27394;-88
2022/02/14 08:55:35;;;;;;;25.55;15.53;;;;;;;4.71;56.81;97137.19;1662147;85;25811;-86
2022/02/14 08:58:02;;;;;;;26.60;15.72;;;;;;;4.97;56.57;97133.27;1659149;86;25836;-86
2022/02/14 09:00:29;;;;;;;28.83;15.93;;;;;;;5.25;56.17;97131.64;1660652;86;25848;-89
2022/02/14 09:02:55;;;;;;;28.52;15.70;;;;;;;5.58;55.88;97131.24;1658519;86;25280;-90
2022/02/14 09:05:23;;;;;;;26.85;16.25;;;;;;;5.83;55.35;97123.21;1654932;86;27357;-86
2022/02/14 09:07:50;;;;;;;27.22;16.60;;;;;;;6.08;54.99;97119.20;1656416;85;25354;-91
2022/02/14 09:10:17;;;;;;;24.27;15.45;;;;;;;6.35;54.58;97109.58;1658824;86;25282;-87
2022/02/14 09:12:46;;;;;;;26.73;15.58;;;;;;;6.59;53.80;97111.03;1658954;86;25748;-86
2022/02/14 09:15:13;;;;;;;21.70;14.93;;;;;;;6.86;53.82;97106.20;1657566;85;25769;-90
2022/02/14 09:17:40;;;;;;;24.18;15.20;;;;;;;7.07;52.80;97105.31;1657564;86;27405;-88
2022/02/14 09:20:09;;;;;;;21.02;14.75;;;;;;;7.27;52.11;97101.90;1658964;86;25746;-89
2022/02/14 09:22:36;;;;;;;23.47;14.68;;;;;;;7.43;52.08;97110.48;1657649;86;25756;-88
2022/02/14 09:25:04;;;;;;;24.98;15.80;;;;;;;7.52;51.62;97101.22;1656805;85;25764;-87
2022/02/14 09:27:31;;;;;;;25.23;15.43;;;;;;;7.61;51.17;97100.52;1656884;86;26525;-88
2022/02/14 09:29:58;;;;;;;29.90;17.17;;;;;;;7.73;51.22;97099.47;1657475;86;27420;-90
2022/02/14 09:32:26;;;;;;;20.52;14.18;;;;;;;7.93;50.82;97096.32;1657483;86;25745;-90
2022/02/14 09:34:52;;;;;;;22.87;14.53;;;;;;;8.15;50.58;97089.76;1656934;86;25852;-88
2022/02/14 09:37:19;;;;;;;21.50;13.55;;;;;;;8.32;49.94;97092.11;1657076;86;26475;-90
2022/02/14 09:39:45;;;;;;;28.17;14.98;;;;;;;8.41;48.91;97093.05;1656932;86;26101;-89
2022/02/14 09:42:12;;;;;;;20.12;13.65;;;;;;;8.56;49.56;97091.52;1656833;85;27396;-88
2022/02/14 09:44:39;;;;;;;21.10;12.55;;;;;;;8.80;49.26;97088.72;1655955;86;25337;-90
2022/02/14 09:47:06;;;;;;;17.65;12.95;;;;;;;8.96;48.77;97081.02;1656515;86;25823;-90
2022/02/14 09:49:33;;;;;;;19.27;14.98;;;;;;;9.15;48.68;97087.44;1654757;86;25877;-92
2022/02/14 09:52:00;;;;;;;20.77;13.22;;;;;;;9.26;48.05;97085.95;1657440;85;26410;-91
2022/02/14 09:54:27;;;;;;;24.63;15.88;;;;;;;9.29;47.38;97082.85;1656831;86;27455;-90
2022/02/14 09:56:54;;;;;;;19.77;13.15;;;;;;;9.34;47.42;97081.16;1656330;86;25928;-91
2022/02/14 09:59:22;;;;;;;20.45;14.85;;;;;;;9.45;46.77;97076.16;1657223;86;25787;-91
2022/02/14 10:01:49;;;;;;;23.42;15.00;;;;;;;9.47;46.77;97074.91;1656638;86;25838;-91
2022/02/14 10:04:16;;;;;;;23.90;14.95;;;;;;;9.61;46.77;97073.83;1656473;86;25784;-91
2022/02/14 10:06:43;;;;;;;26.73;17.10;;;;;;;9.83;46.39;97070.83;1656237;86;27428;-90
2022/02/14 10:09:25;;;;;;;26.15;16.40;;;;;;;9.97;46.21;97072.42;1662013;86;25750;-90
2022/02/14 10:12:06;;;;;;;24.10;15.30;;;;;;;10.17;46.07;97065.55;1658816;85;25731;-90
2022/02/14 10:14:34;;;;;;;27.52;17.52;;;;;;;10.44;45.93;97062.50;1656930;86;25845;-91
2022/02/14 10:17:14;;;;;;;24.90;16.42;;;;;;;10.65;45.48;97052.37;1657442;86;25764;-92
2022/02/14 10:19:58;;;;;;;28.38;18.32;;;;;;;10.76;45.29;97058.40;1656465;86;27441;-90
2022/02/14 10:22:26;;;;;;;30.50;19.00;;;;;;;10.98;45.30;97056.16;1656634;86;25731;-89
2022/02/14 10:24:53;;;;;;;29.82;19.30;;;;;;;11.12;44.89;97064.41;1656724;86;25336;-90
2022/02/14 10:27:35;;;;;;;32.45;19.57;;;;;;;11.23;44.76;97053.41;1658158;86;26040;-90
2022/02/14 10:30:10;;;;;;;28.90;19.15;;;;;;;11.34;43.97;97048.09;1656738;86;25780;-90
2022/02/14 10:32:50;;;;;;;26.05;17.67;;;;;;;11.46;43.83;97046.81;1657416;85;27237;-90
2022/02/14 10:35:17;;;;;;;25.17;18.17;;;;;;;11.64;43.76;97047.31;1657279;86;25791;-90
2022/02/14 10:37:45;;;;;;;26.70;17.60;;;;;;;11.74;43.30;97041.67;1656657;86;25773;-90
2022/02/14 10:40:38;;;;;;;28.38;17.57;;;;;;;11.93;43.18;97034.92;1651047;86;25771;-92
2022/02/14 10:43:01;;;;;;;28.57;16.42;;;;;;;12.17;43.04;97027.20;1654048;86;25780;-89
2022/02/14 10:45:28;;;;;;;29.00;16.12;;;;;;;12.33;42.07;97034.63;1658356;85;28942;-89
2022/02/14 10:47:56;;;;;;;23.60;16.25;;;;;;;12.34;41.79;97022.75;1658448;86;25756;-89
2022/02/14 10:50:26;;;;;;;27.42;15.68;;;;;;;12.42;41.94;97029.20;1655689;86;26418;-90
2022/02/14 10:53:03;;;;;;;22.25;14.58;;;;;;;12.62;41.66;97015.34;1657788;86;25755;-90
2022/02/14 10:55:37;;;;;;;22.07;14.03;;;;;;;12.79;41.39;97016.84;1655871;86;26152;-92
2022/02/14 10:58:03;;;;;;;19.15;13.72;;;;;;;12.99;41.12;97011.36;1658340;86;28166;-91
2022/02/14 11:00:34;;;;;;;22.45;14.43;;;;;;;13.24;40.86;97014.38;1658313;86;25976;-92
2022/02/14 11:03:06;;;;;;;21.65;14.05;;;;;;;13.47;40.59;97008.91;1657901;86;25755;-91
2022/02/14 11:05:30;;;;;;;19.80;12.93;;;;;;;13.60;40.15;97007.83;1645883;86;25735;-89
2022/02/14 11:07:57;;;;;;;21.07;13.58;;;;;;;13.84;40.15;97013.47;1646043;86;25812;-91
2022/02/14 11:10:24;;;;;;;19.90;12.63;;;;;;;14.04;39.56;97004.36;1663017;86;28080;-91
2022/02/14 11:12:58;;;;;;;20.45;12.93;;;;;;;14.20;39.21;96996.50;1662997;85;25656;-91
2022/02/14 11:15:30;;;;;;;22.32;12.88;;;;;;;14.26;38.52;96986.00;1662116;85;25784;-91
2022/02/14 11:18:06;;;;;;;16.37;12.75;;;;;;;14.36;38.87;96987.03;1662863;86;25771;-91
2022/02/14 11:20:33;;;;;;;16.90;11.78;;;;;;;14.51;38.22;96985.12;1662221;86;25802;-90